createdAt,value
2023-01-22T17:03:21.029Z,98798.13
2023-01-22T17:07:08.637Z,98793.75
2023-01-22T17:14:49.605Z,98802.29
2023-01-22T17:18:39.117Z,98810.73
2023-01-22T17:22:28.219Z,98818.70
2023-01-22T17:26:20.184Z,98821.66
2023-01-22T17:30:08.056Z,98828.58
2023-01-22T17:33:57.046Z,98840.50
2023-01-22T17:37:45.868Z,98848.11
2023-01-22T17:41:35.117Z,98852.65
2023-01-22T17:45:24.222Z,98866.52
2023-01-22T17:49:14.608Z,98870.08
2023-01-22T17:52:54.761Z,98872.79
2023-01-22T17:56:46.552Z,98878.52
2023-01-22T18:00:36.143Z,98879.75
2023-01-22T18:23:27.957Z,98908.88
2023-01-22T18:27:05.244Z,98914.79
2023-01-22T18:30:15.709Z,98914.58
2023-01-22T18:33:57.535Z,98915.90
2023-01-22T18:37:43.993Z,98916.39
2023-01-22T18:41:00.871Z,98915.11
2023-01-22T18:48:08.036Z,98918.32
2023-01-22T18:51:36.371Z,98922.05
2023-01-22T19:11:28.150Z,98943.92
2023-01-22T19:15:15.929Z,98937.84
2023-01-22T19:19:03.653Z,98934.77
2023-01-22T19:23:41.025Z,98930.96
2023-01-22T19:27:28.840Z,98934.91
2023-01-22T19:31:16.663Z,98937.27
2023-01-22T19:35:05.113Z,98935.84
2023-01-22T19:38:35.652Z,98938.88
2023-01-22T19:42:24.366Z,98944.70
2023-01-22T19:46:01.685Z,98949.88
2023-01-22T19:49:47.146Z,98962.26
2023-01-22T19:53:37.234Z,98963.69
2023-01-22T19:58:11.957Z,98965.35
2023-01-22T20:02:00.369Z,98966.02
2023-01-22T20:05:48.258Z,98970.61
2023-01-22T20:09:35.889Z,98973.02
2023-01-22T20:13:26.468Z,98972.83
2023-01-22T20:17:17.427Z,98970.15
2023-01-22T20:21:32.398Z,98976.56
2023-01-22T20:25:01.775Z,98978.08
2023-01-22T20:28:50.847Z,98977.81
2023-01-22T20:32:39.857Z,98977.50
2023-01-22T20:36:29.126Z,98976.43
2023-01-22T20:40:18.394Z,98981.60
2023-01-22T20:45:26.586Z,98985.34
2023-01-22T21:07:36.640Z,99026.20
2023-01-22T21:11:26.003Z,99025.09
2023-01-22T21:15:14.976Z,99030.63
2023-01-22T21:19:07.060Z,99036.58
2023-01-22T21:22:56.227Z,99052.95
2023-01-22T21:26:46.108Z,99063.90
2023-01-22T21:30:36.579Z,99071.48
2023-01-22T21:34:28.736Z,99072.90
2023-01-22T21:38:18.081Z,99075.52
2023-01-22T21:42:08.421Z,99078.73
2023-01-22T21:45:48.180Z,99088.00
2023-01-22T21:49:38.185Z,99095.26
2023-01-22T21:53:55.628Z,99089.35
2023-01-22T21:57:45.101Z,99095.16
2023-01-22T22:01:34.230Z,99092.89
2023-01-22T22:05:24.076Z,99090.06
2023-01-22T22:09:13.750Z,99084.34
2023-01-22T22:13:03.850Z,99089.14
2023-01-22T22:16:53.839Z,99093.68
2023-01-22T22:20:58.723Z,99084.08
2023-01-22T22:24:52.761Z,99090.55
2023-01-22T22:28:42.852Z,99097.67
2023-01-22T22:32:49.120Z,99097.31
2023-01-22T22:36:38.406Z,99096.55
2023-01-22T22:40:27.333Z,99096.60
2023-01-22T22:44:19.172Z,99104.14
2023-01-22T22:48:08.091Z,99106.99
2023-01-22T22:51:58.466Z,99101.41
2023-01-22T22:55:47.631Z,99108.85
2023-01-22T22:59:36.958Z,99115.13
2023-01-22T23:03:26.861Z,99110.62
2023-01-22T23:07:17.276Z,99115.34
2023-01-22T23:11:07.816Z,99116.34
2023-01-22T23:14:57.762Z,99131.98
2023-01-22T23:18:46.700Z,99123.48
2023-01-22T23:22:35.694Z,99131.04
2023-01-22T23:26:24.706Z,99133.04
2023-01-22T23:30:14.001Z,99129.77
2023-01-22T23:34:03.094Z,99132.40
2023-01-22T23:37:52.360Z,99134.58
2023-01-22T23:41:41.321Z,99139.06
2023-01-22T23:45:30.733Z,99145.45
2023-01-22T23:49:19.738Z,99140.49
2023-01-22T23:53:09.042Z,99153.26
2023-01-22T23:56:58.248Z,99159.16
